Time;durP1;ratioP1;P1;durP2;ratioP2;P2;SDS_P1;SDS_P2;PMS_P1;PMS_P2;Temp;Humidity;BMP_temperature;BMP_pressure;BME280_temperature;BME280_humidity;BME280_pressure;Samples;Min_cycle;Max_cycle;Signal;HPM_P1;HPM_P2
2020/12/08 00:02:07;;;;;;;12.13;6.15;;;4.20;99.90;;;;;;5065916;28;20081;-76
2020/12/08 00:04:33;;;;;;;11.00;4.85;;;4.20;99.90;;;;;;5064341;28;20071;-76
2020/12/08 00:06:58;;;;;;;11.93;6.22;;;4.20;99.90;;;;;;5065524;28;20021;-77
2020/12/08 00:09:24;;;;;;;11.40;5.90;;;4.20;99.90;;;;;;5064608;28;20041;-77
2020/12/08 00:11:49;;;;;;;12.10;5.32;;;4.20;99.90;;;;;;5064486;28;20021;-79
2020/12/08 00:14:15;;;;;;;13.63;6.57;;;4.20;99.90;;;;;;5066009;28;20391;-77
2020/12/08 00:16:41;;;;;;;9.82;5.82;;;4.20;99.90;;;;;;5065693;28;20051;-78
2020/12/08 00:19:10;;;;;;;11.60;5.63;;;4.10;99.90;;;;;;5065507;28;20021;-77
2020/12/08 00:21:41;;;;;;;15.90;6.38;;;4.10;99.90;;;;;;5064122;28;20021;-76
2020/12/08 00:24:07;;;;;;;11.82;5.80;;;4.10;99.90;;;;;;5065257;28;20056;-77
2020/12/08 00:26:33;;;;;;;10.15;5.78;;;4.10;99.90;;;;;;5064179;28;20079;-77
2020/12/08 00:28:58;;;;;;;9.60;4.80;;;4.10;99.90;;;;;;5063952;28;20044;-77
2020/12/08 00:31:26;;;;;;;11.50;5.65;;;4.10;99.90;;;;;;5065340;28;20032;-77
2020/12/08 00:33:53;;;;;;;13.38;5.68;;;4.10;99.90;;;;;;5065518;28;20029;-77
2020/12/08 00:36:19;;;;;;;10.27;5.20;;;4.00;99.90;;;;;;5065513;28;20099;-77
2020/12/08 00:38:47;;;;;;;10.63;5.05;;;4.00;99.90;;;;;;5065339;28;20048;-76
2020/12/08 00:41:16;;;;;;;16.67;6.85;;;4.00;99.90;;;;;;5065175;28;20021;-76
2020/12/08 00:43:42;;;;;;;12.63;5.95;;;4.00;99.90;;;;;;5065132;28;20032;-76
2020/12/08 00:46:14;;;;;;;10.30;6.15;;;4.10;99.90;;;;;;5063858;28;20117;-77
2020/12/08 00:48:41;;;;;;;12.90;5.80;;;4.00;99.90;;;;;;5065259;28;20072;-77
2020/12/08 00:51:07;;;;;;;9.43;5.22;;;3.90;99.90;;;;;;5065129;28;20024;-77
2020/12/08 00:53:32;;;;;;;11.70;5.57;;;3.90;99.90;;;;;;5063665;28;20112;-77
2020/12/08 00:56:06;;;;;;;10.75;5.45;;;3.90;99.90;;;;;;5064727;28;20044;-77
2020/12/08 00:58:32;;;;;;;16.83;5.90;;;3.90;99.90;;;;;;5064897;28;20017;-76
2020/12/08 01:00:57;;;;;;;10.95;4.88;;;3.90;99.90;;;;;;5064966;28;20032;-77
2020/12/08 01:03:23;;;;;;;12.68;5.20;;;3.90;99.90;;;;;;5063462;28;20041;-77
2020/12/08 01:05:49;;;;;;;11.85;5.80;;;3.90;99.90;;;;;;5063739;28;20029;-79
2020/12/08 01:08:14;;;;;;;13.65;5.47;;;3.80;99.90;;;;;;5064870;28;20529;-77
2020/12/08 01:10:40;;;;;;;10.27;4.50;;;3.80;99.90;;;;;;5064727;28;20520;-77
2020/12/08 01:13:05;;;;;;;11.52;5.45;;;3.70;99.90;;;;;;5064543;28;20044;-77
2020/12/08 01:15:31;;;;;;;14.43;6.10;;;3.70;99.90;;;;;;5064744;28;20021;-77
2020/12/08 01:17:57;;;;;;;15.25;5.22;;;3.70;99.90;;;;;;5064157;28;20037;-77
2020/12/08 01:20:22;;;;;;;13.40;5.65;;;3.70;99.90;;;;;;5064475;28;20052;-77
2020/12/08 01:22:48;;;;;;;12.48;6.10;;;3.70;99.90;;;;;;5065026;28;20052;-76
2020/12/08 01:25:13;;;;;;;10.25;5.70;;;3.70;99.90;;;;;;5064819;28;20100;-77
2020/12/08 01:27:39;;;;;;;14.50;5.47;;;3.80;99.90;;;;;;5064742;28;20076;-76
2020/12/08 01:30:06;;;;;;;10.05;5.57;;;3.80;99.90;;;;;;5064681;28;20127;-76
2020/12/08 01:32:31;;;;;;;11.73;6.10;;;3.80;99.90;;;;;;5064398;28;20021;-78
2020/12/08 01:34:57;;;;;;;11.57;6.20;;;3.80;99.90;;;;;;5063042;28;20090;-77
2020/12/08 01:37:22;;;;;;;18.05;7.63;;;3.70;99.90;;;;;;5064604;28;20338;-77
2020/12/08 01:39:48;;;;;;;11.90;5.40;;;3.70;99.90;;;;;;5063566;28;20021;-76
2020/12/08 01:42:14;;;;;;;10.35;5.65;;;3.70;99.90;;;;;;5064564;28;20104;-76
2020/12/08 01:44:49;;;;;;;13.60;5.93;;;3.70;99.90;;;;;;5064569;28;20030;-76
2020/12/08 01:47:15;;;;;;;12.35;5.13;;;3.60;99.90;;;;;;5064496;28;20028;-76
2020/12/08 01:49:45;;;;;;;12.98;6.63;;;3.60;99.90;;;;;;5064564;28;20119;-76
2020/12/08 01:52:15;;;;;;;11.30;5.15;;;3.60;99.90;;;;;;5063019;28;20071;-76
2020/12/08 01:54:44;;;;;;;13.73;6.53;;;3.60;99.90;;;;;;5062830;28;20056;-76
2020/12/08 01:57:10;;;;;;;12.05;5.18;;;3.60;99.90;;;;;;5064316;28;20124;-76
2020/12/08 01:59:35;;;;;;;11.98;6.10;;;3.70;99.90;;;;;;5064469;28;20040;-76
2020/12/08 02:02:01;;;;;;;9.88;4.97;;;3.70;99.90;;;;;;5064525;28;20021;-76
2020/12/08 02:04:27;;;;;;;13.93;6.13;;;3.70;99.90;;;;;;5064301;28;20053;-77
2020/12/08 02:06:52;;;;;;;10.90;5.32;;;3.70;99.90;;;;;;5062900;28;20049;-77
2020/12/08 02:09:18;;;;;;;12.80;5.93;;;3.70;99.90;;;;;;5063290;28;20053;-76
2020/12/08 02:11:43;;;;;;;14.63;5.97;;;3.60;99.90;;;;;;5063084;28;20028;-76
2020/12/08 02:14:09;;;;;;;10.02;5.18;;;3.60;99.90;;;;;;5064060;28;20096;-77
2020/12/08 02:16:35;;;;;;;13.13;5.57;;;3.50;99.90;;;;;;5064186;28;20458;-77
2020/12/08 02:19:01;;;;;;;11.05;5.53;;;3.50;99.90;;;;;;5064174;28;20028;-76
2020/12/08 02:21:32;;;;;;;12.30;5.32;;;3.50;99.90;;;;;;5064242;28;20681;-77
2020/12/08 02:23:59;;;;;;;9.95;5.80;;;3.50;99.90;;;;;;5064194;28;20086;-77
2020/12/08 02:26:25;;;;;;;13.43;6.13;;;3.50;99.90;;;;;;5062752;28;20059;-76
2020/12/08 02:28:51;;;;;;;9.40;5.18;;;3.60;99.90;;;;;;5064216;28;20041;-77
2020/12/08 02:31:16;;;;;;;10.55;4.55;;;3.50;99.90;;;;;;5067604;28;20032;-77
2020/12/08 02:33:42;;;;;;;13.18;6.03;;;3.60;99.90;;;;;;5066361;28;20025;-76
2020/12/08 02:36:08;;;;;;;11.05;5.57;;;3.60;99.90;;;;;;5066361;28;20021;-76
2020/12/08 02:38:33;;;;;;;12.10;5.68;;;3.60;99.90;;;;;;5067599;28;20017;-76
2020/12/08 02:40:59;;;;;;;12.38;5.43;;;3.70;99.90;;;;;;5067585;28;20025;-76
2020/12/08 02:43:25;;;;;;;9.48;5.20;;;3.70;99.90;;;;;;5066121;28;20017;-77
2020/12/08 02:45:50;;;;;;;11.60;5.38;;;3.80;99.90;;;;;;5066139;28;20028;-77
2020/12/08 02:48:17;;;;;;;10.38;5.45;;;3.80;99.90;;;;;;5067528;28;20489;-76
2020/12/08 02:50:43;;;;;;;10.23;5.50;;;3.90;99.90;;;;;;5067380;28;20013;-76
2020/12/08 02:53:08;;;;;;;6.97;4.45;;;3.90;99.90;;;;;;5067409;28;20054;-76
2020/12/08 02:55:34;;;;;;;11.23;5.53;;;3.90;99.90;;;;;;5067237;28;20170;-76
2020/12/08 02:57:59;;;;;;;8.90;4.95;;;3.90;99.90;;;;;;5067321;28;20077;-76
2020/12/08 03:00:26;;;;;;;11.05;5.53;;;3.90;99.90;;;;;;5066179;28;20055;-76
2020/12/08 03:02:51;;;;;;;10.40;4.78;;;3.90;99.90;;;;;;5066806;28;20418;-76
2020/12/08 03:05:18;;;;;;;11.10;5.20;;;3.90;99.90;;;;;;5067350;28;20041;-76
2020/12/08 03:07:43;;;;;;;8.18;4.00;;;3.90;99.90;;;;;;5065846;28;20021;-76
2020/12/08 03:10:09;;;;;;;11.48;5.28;;;4.00;99.90;;;;;;5065587;28;20076;-76
2020/12/08 03:12:36;;;;;;;13.25;4.93;;;4.00;99.90;;;;;;5067079;28;20025;-76
2020/12/08 03:15:05;;;;;;;14.25;5.35;;;4.00;99.90;;;;;;5065728;28;20021;-77
2020/12/08 03:17:31;;;;;;;14.45;5.93;;;4.00;99.90;;;;;;5065685;28;20373;-76
2020/12/08 03:19:57;;;;;;;11.52;4.57;;;4.00;99.90;;;;;;5066665;28;20116;-77
2020/12/08 03:22:23;;;;;;;12.18;5.15;;;4.00;99.90;;;;;;5066865;28;20373;-77
2020/12/08 03:24:49;;;;;;;16.08;5.63;;;4.00;99.90;;;;;;5065534;28;20021;-77
2020/12/08 03:27:15;;;;;;;9.57;4.95;;;4.00;99.90;;;;;;5066770;28;20017;-77
2020/12/08 03:29:41;;;;;;;10.70;6.10;;;4.10;99.90;;;;;;5066577;28;20037;-76
2020/12/08 03:32:07;;;;;;;11.38;4.97;;;4.10;99.90;;;;;;5066699;28;20080;-76
2020/12/08 03:34:33;;;;;;;13.25;5.43;;;4.10;99.90;;;;;;5066662;28;20013;-76
2020/12/08 03:36:58;;;;;;;11.55;6.00;;;4.10;99.90;;;;;;5065181;28;20021;-77
2020/12/08 03:39:24;;;;;;;8.98;4.43;;;4.10;99.90;;;;;;5066398;28;20024;-77
2020/12/08 03:41:49;;;;;;;9.75;5.57;;;4.10;99.90;;;;;;5065834;28;20038;-77
2020/12/08 03:44:15;;;;;;;14.65;5.88;;;4.10;99.90;;;;;;5066479;28;20037;-77
2020/12/08 03:46:40;;;;;;;8.75;4.70;;;4.10;99.90;;;;;;5064881;28;20523;-77
2020/12/08 03:49:06;;;;;;;9.23;4.28;;;4.10;99.90;;;;;;5066171;28;20041;-77
2020/12/08 03:51:32;;;;;;;9.65;4.97;;;4.10;99.90;;;;;;5066237;28;20057;-77
2020/12/08 03:53:57;;;;;;;9.18;4.50;;;4.10;99.90;;;;;;5066009;28;20032;-77
2020/12/08 03:56:23;;;;;;;9.63;4.60;;;4.10;99.90;;;;;;5066283;28;20100;-77
2020/12/08 03:58:48;;;;;;;8.32;4.72;;;4.10;99.90;;;;;;5065016;28;20021;-78
2020/12/08 04:01:16;;;;;;;13.77;4.80;;;4.10;99.90;;;;;;5064846;28;20025;-77
2020/12/08 04:03:46;;;;;;;9.57;4.60;;;4.10;99.90;;;;;;5065791;28;20072;-77
2020/12/08 04:06:12;;;;;;;8.85;5.40;;;4.10;99.90;;;;;;5065681;28;20563;-76
2020/12/08 04:08:44;;;;;;;9.23;5.25;;;4.10;99.90;;;;;;5064585;28;20041;-76
2020/12/08 04:11:11;;;;;;;10.50;4.70;;;4.10;99.90;;;;;;5064674;28;20025;-76
2020/12/08 04:13:36;;;;;;;13.05;5.85;;;4.10;99.90;;;;;;5065692;28;20100;-77
2020/12/08 04:16:02;;;;;;;14.48;5.80;;;4.10;99.90;;;;;;5065997;28;20108;-77
2020/12/08 04:18:28;;;;;;;8.77;5.05;;;4.10;99.90;;;;;;5065823;28;20025;-76
2020/12/08 04:20:54;;;;;;;8.20;5.03;;;4.10;99.90;;;;;;5065719;28;20040;-77
2020/12/08 04:23:20;;;;;;;19.15;4.85;;;4.10;99.90;;;;;;5065653;28;20028;-79
2020/12/08 04:25:50;;;;;;;9.32;4.65;;;4.10;99.90;;;;;;5065910;28;20021;-76
2020/12/08 04:28:15;;;;;;;11.90;4.78;;;4.10;99.90;;;;;;5065730;28;20025;-76
2020/12/08 04:30:41;;;;;;;9.80;5.00;;;4.10;99.90;;;;;;5065476;28;20171;-76
2020/12/08 04:33:07;;;;;;;11.20;5.65;;;4.10;99.90;;;;;;5064057;28;20027;-77
2020/12/08 04:35:33;;;;;;;11.48;5.47;;;4.10;99.90;;;;;;5065358;28;20084;-76
2020/12/08 04:37:59;;;;;;;11.98;5.22;;;4.10;99.90;;;;;;5065387;28;20043;-77
2020/12/08 04:40:25;;;;;;;10.57;5.25;;;4.10;99.90;;;;;;5064046;28;20408;-78
2020/12/08 04:42:55;;;;;;;11.48;5.68;;;4.10;99.90;;;;;;5064010;28;20021;-77
2020/12/08 04:45:22;;;;;;;10.63;5.05;;;4.10;99.90;;;;;;5065503;28;20025;-78
2020/12/08 04:47:49;;;;;;;12.93;5.97;;;4.10;99.90;;;;;;5064237;28;20029;-77
2020/12/08 04:50:19;;;;;;;10.43;4.90;;;4.10;99.90;;;;;;5065227;28;20029;-77
2020/12/08 04:52:49;;;;;;;13.32;5.53;;;4.10;99.90;;;;;;5063184;28;20021;-76
2020/12/08 04:55:15;;;;;;;9.00;4.95;;;4.10;99.90;;;;;;5064965;28;20035;-77
2020/12/08 04:57:40;;;;;;;10.73;4.82;;;4.10;99.90;;;;;;5064941;28;20056;-76
2020/12/08 05:00:06;;;;;;;9.05;4.65;;;4.10;99.90;;;;;;5063666;28;20041;-76
2020/12/08 05:02:31;;;;;;;9.50;4.60;;;4.10;99.90;;;;;;5064658;28;20021;-76
2020/12/08 05:04:57;;;;;;;9.50;5.18;;;4.10;99.90;;;;;;5065107;28;20020;-76
2020/12/08 05:07:27;;;;;;;13.57;6.07;;;4.10;99.90;;;;;;5063609;28;20027;-77
2020/12/08 05:09:53;;;;;;;13.32;5.47;;;4.20;99.90;;;;;;5063483;28;20059;-77
2020/12/08 05:12:21;;;;;;;10.40;5.25;;;4.10;99.90;;;;;;5063556;28;20029;-77
2020/12/08 05:14:46;;;;;;;9.90;5.55;;;4.10;99.90;;;;;;5063624;28;20170;-76
2020/12/08 05:17:12;;;;;;;23.42;6.15;;;4.20;99.90;;;;;;5064814;28;20505;-76
2020/12/08 05:19:38;;;;;;;7.55;5.03;;;4.20;99.90;;;;;;5064806;28;20025;-76
2020/12/08 05:22:03;;;;;;;9.32;4.93;;;4.20;99.90;;;;;;5064935;28;20025;-76
2020/12/08 05:24:30;;;;;;;11.27;5.72;;;4.20;99.90;;;;;;5063248;28;20033;-76
2020/12/08 05:27:03;;;;;;;12.50;5.28;;;4.20;99.90;;;;;;5063195;28;20089;-77
2020/12/08 05:29:31;;;;;;;8.90;4.70;;;4.20;99.90;;;;;;5063379;28;20082;-76
2020/12/08 05:31:57;;;;;;;9.65;5.15;;;4.10;99.90;;;;;;5064744;28;20025;-76
2020/12/08 05:34:25;;;;;;;9.25;4.72;;;4.20;99.90;;;;;;5064451;28;20020;-77
2020/12/08 05:36:53;;;;;;;8.88;4.97;;;4.20;99.90;;;;;;5064821;28;20025;-78
2020/12/08 05:39:21;;;;;;;11.57;6.30;;;4.10;99.90;;;;;;5063594;28;20024;-76
2020/12/08 05:41:51;;;;;;;8.13;4.40;;;4.10;99.90;;;;;;5064522;28;20450;-77
2020/12/08 05:44:23;;;;;;;12.63;5.32;;;4.20;99.90;;;;;;5063388;28;20028;-76
2020/12/08 05:46:50;;;;;;;12.63;5.43;;;4.10;99.90;;;;;;5064630;28;20024;-77
2020/12/08 05:49:16;;;;;;;11.10;4.78;;;4.20;99.90;;;;;;5064529;28;20039;-76
2020/12/08 05:51:46;;;;;;;12.57;6.03;;;4.20;99.90;;;;;;5064377;28;20044;-76
2020/12/08 05:54:18;;;;;;;9.30;4.63;;;4.20;99.90;;;;;;5064540;28;20051;-77
2020/12/08 05:56:44;;;;;;;14.07;6.03;;;4.20;99.90;;;;;;5064581;28;20028;-76
2020/12/08 05:59:09;;;;;;;8.80;4.45;;;4.20;99.90;;;;;;5064269;28;20029;-76
2020/12/08 06:01:49;;;;;;;10.25;5.07;;;4.20;99.90;;;;;;5064336;28;20024;-77
2020/12/08 06:04:15;;;;;;;11.57;4.90;;;4.20;99.90;;;;;;5063239;28;20493;-77
2020/12/08 06:06:50;;;;;;;8.98;5.13;;;4.20;99.90;;;;;;5068232;28;20025;-76
2020/12/08 06:09:30;;;;;;;11.50;4.82;;;4.20;99.90;;;;;;5068280;28;20033;-77
2020/12/08 06:11:56;;;;;;;10.60;5.20;;;4.20;99.90;;;;;;5066961;28;20396;-77
2020/12/08 06:14:31;;;;;;;11.18;4.97;;;4.20;99.90;;;;;;5066832;28;20021;-77
2020/12/08 06:17:05;;;;;;;10.57;5.32;;;4.20;99.90;;;;;;5067775;28;20035;-76
2020/12/08 06:19:33;;;;;;;8.30;4.28;;;4.20;99.90;;;;;;5066788;28;20039;-77
2020/12/08 06:21:59;;;;;;;11.60;5.80;;;4.20;99.90;;;;;;5067804;28;20038;-77
2020/12/08 06:24:25;;;;;;;8.60;4.45;;;4.20;99.90;;;;;;5066856;28;20025;-77
2020/12/08 06:26:51;;;;;;;8.57;5.18;;;4.20;99.90;;;;;;5066610;28;20016;-78
2020/12/08 06:29:19;;;;;;;12.80;5.72;;;4.20;99.90;;;;;;5066605;28;20037;-76
2020/12/08 06:31:46;;;;;;;12.10;5.20;;;4.20;99.90;;;;;;5067964;28;20090;-75
2020/12/08 06:34:25;;;;;;;12.35;5.28;;;4.20;99.90;;;;;;5065941;28;20024;-76
2020/12/08 06:36:51;;;;;;;8.93;4.65;;;4.20;99.90;;;;;;5066470;28;20023;-76
2020/12/08 06:39:17;;;;;;;11.20;5.35;;;4.30;99.90;;;;;;5067707;28;20068;-75
2020/12/08 06:41:44;;;;;;;9.75;5.38;;;4.30;99.90;;;;;;5065849;28;20025;-76
2020/12/08 06:44:14;;;;;;;7.38;4.03;;;4.30;99.90;;;;;;5067345;28;20025;-76
2020/12/08 06:46:58;;;;;;;11.70;4.88;;;4.30;99.90;;;;;;5065850;28;20451;-76
2020/12/08 06:49:25;;;;;;;8.65;4.55;;;4.30;99.90;;;;;;5067411;28;20037;-77
2020/12/08 06:51:57;;;;;;;8.93;4.55;;;4.30;99.90;;;;;;5065979;28;20029;-77
2020/12/08 06:54:24;;;;;;;11.23;5.10;;;4.30;99.90;;;;;;5067429;28;20485;-76
2020/12/08 06:56:51;;;;;;;12.38;5.20;;;4.30;99.90;;;;;;5065898;28;20016;-77
2020/12/08 06:59:24;;;;;;;8.77;5.03;;;4.30;99.90;;;;;;5067154;28;20017;-77
2020/12/08 07:01:54;;;;;;;10.50;5.13;;;4.30;99.90;;;;;;5067357;28;20028;-77
2020/12/08 07:04:21;;;;;;;11.02;5.13;;;4.30;99.90;;;;;;5066914;28;20045;-77
2020/12/08 07:06:46;;;;;;;12.98;4.78;;;4.30;99.90;;;;;;5067381;28;20053;-76
2020/12/08 07:09:13;;;;;;;11.57;5.65;;;4.30;99.90;;;;;;5066910;28;21089;-76
2020/12/08 07:11:39;;;;;;;11.07;5.07;;;4.40;99.90;;;;;;5065515;28;20470;-76
2020/12/08 07:14:05;;;;;;;11.82;4.82;;;4.30;99.90;;;;;;5065578;28;20025;-76
2020/12/08 07:16:33;;;;;;;14.73;5.32;;;4.30;99.90;;;;;;5065782;28;20060;-75
2020/12/08 07:19:02;;;;;;;10.43;5.18;;;4.40;99.90;;;;;;5066659;28;20017;-77
2020/12/08 07:21:27;;;;;;;11.55;5.35;;;4.30;99.90;;;;;;5065522;28;20040;-75
2020/12/08 07:23:55;;;;;;;13.93;5.53;;;4.40;99.90;;;;;;5066822;28;20369;-76
2020/12/08 07:26:39;;;;;;;10.75;5.05;;;4.30;99.90;;;;;;5065445;28;20051;-76
2020/12/08 07:29:05;;;;;;;15.65;5.97;;;4.30;99.90;;;;;;5067250;28;20116;-74
2020/12/08 07:31:31;;;;;;;11.05;5.55;;;4.30;99.90;;;;;;5066826;28;20029;-74
2020/12/08 07:33:58;;;;;;;10.70;5.78;;;4.30;99.90;;;;;;5065333;28;20020;-77
2020/12/08 07:36:29;;;;;;;9.60;4.80;;;4.30;99.90;;;;;;5064725;28;20024;-75
2020/12/08 07:38:56;;;;;;;14.20;6.18;;;4.30;99.90;;;;;;5066156;28;20021;-75
2020/12/08 07:41:28;;;;;;;11.13;5.28;;;4.30;99.90;;;;;;5066072;28;20074;-75
2020/12/08 07:43:57;;;;;;;9.15;5.40;;;4.30;99.90;;;;;;5066073;28;20087;-76
2020/12/08 07:46:30;;;;;;;17.65;5.80;;;4.30;99.90;;;;;;5064746;28;20029;-76
2020/12/08 07:49:14;;;;;;;13.30;5.93;;;4.30;99.90;;;;;;5064737;28;20033;-76
2020/12/08 07:51:40;;;;;;;9.13;4.93;;;4.30;99.90;;;;;;5065710;28;20033;-75
2020/12/08 07:54:06;;;;;;;11.45;5.18;;;4.30;99.90;;;;;;5065443;28;20063;-75
2020/12/08 07:56:34;;;;;;;14.27;5.53;;;4.30;99.90;;;;;;5065555;28;20028;-75
2020/12/08 07:59:01;;;;;;;9.50;5.35;;;4.30;99.90;;;;;;5065879;28;20021;-76
2020/12/08 08:01:27;;;;;;;11.25;5.95;;;4.40;99.90;;;;;;5064628;28;20059;-76
2020/12/08 08:03:53;;;;;;;12.80;5.82;;;4.40;99.90;;;;;;5065684;28;20045;-76
2020/12/08 08:06:21;;;;;;;12.23;6.15;;;4.60;99.90;;;;;;5065950;28;20338;-76
2020/12/08 08:08:49;;;;;;;17.17;5.97;;;4.60;99.90;;;;;;5065904;28;20456;-75
2020/12/08 08:11:16;;;;;;;10.60;4.28;;;4.80;99.90;;;;;;5064411;28;20027;-75
2020/12/08 08:13:42;;;;;;;10.52;5.43;;;5.00;99.90;;;;;;5064695;28;20036;-78
2020/12/08 08:16:11;;;;;;;11.32;4.93;;;5.20;99.90;;;;;;5064073;28;20155;-76
2020/12/08 08:18:38;;;;;;;11.52;5.20;;;5.40;99.90;;;;;;5065087;28;20021;-77
2020/12/08 08:21:04;;;;;;;8.63;4.13;;;5.50;99.90;;;;;;5063391;28;20025;-77
2020/12/08 08:23:30;;;;;;;9.10;4.50;;;5.50;99.90;;;;;;5063581;28;20021;-77
2020/12/08 08:25:56;;;;;;;7.00;4.53;;;5.50;99.90;;;;;;5065172;28;20017;-78
2020/12/08 08:28:23;;;;;;;8.75;4.60;;;5.30;99.90;;;;;;5061802;28;20032;-77
2020/12/08 08:30:50;;;;;;;12.77;5.60;;;5.20;99.90;;;;;;5064861;28;20021;-77
2020/12/08 08:33:16;;;;;;;12.07;4.78;;;5.10;99.90;;;;;;5064873;28;20151;-77
2020/12/08 08:35:42;;;;;;;13.18;4.13;;;4.90;99.90;;;;;;5063200;28;20028;-77
2020/12/08 08:38:07;;;;;;;10.43;4.22;;;4.90;99.90;;;;;;5064215;28;20055;-77
2020/12/08 08:40:33;;;;;;;9.05;4.75;;;4.90;99.90;;;;;;5064515;28;20028;-77
2020/12/08 08:42:59;;;;;;;9.45;4.78;;;4.90;99.90;;;;;;5063132;28;20361;-78
2020/12/08 08:45:28;;;;;;;12.30;5.72;;;4.90;99.90;;;;;;5064479;28;20017;-78
2020/12/08 08:47:54;;;;;;;10.32;5.13;;;5.10;99.90;;;;;;5064262;28;20025;-79
2020/12/08 08:50:21;;;;;;;6.55;3.85;;;5.30;99.90;;;;;;5062515;28;20033;-79
2020/12/08 08:52:46;;;;;;;9.40;4.60;;;5.60;99.90;;;;;;5064407;28;20051;-74
2020/12/08 08:55:12;;;;;;;14.52;4.53;;;5.90;99.90;;;;;;5064638;28;20059;-74
2020/12/08 08:57:38;;;;;;;8.80;4.32;;;5.90;99.90;;;;;;5064536;28;20028;-74
2020/12/08 09:00:06;;;;;;;11.23;4.18;;;6.00;99.90;;;;;;5064335;28;20432;-75
2020/12/08 09:02:32;;;;;;;8.07;3.83;;;6.20;99.90;;;;;;5063993;28;20021;-75
2020/12/08 09:04:58;;;;;;;7.47;4.03;;;6.50;99.90;;;;;;5064517;28;20028;-75
2020/12/08 09:07:26;;;;;;;7.35;3.90;;;6.90;99.90;;;;;;5064402;28;20021;-76
2020/12/08 09:09:55;;;;;;;6.75;3.70;;;7.30;99.90;;;;;;5063854;28;20032;-76
2020/12/08 09:12:22;;;;;;;5.22;2.92;;;7.70;99.90;;;;;;5064495;28;20024;-77
2020/12/08 09:14:49;;;;;;;4.18;2.70;;;8.10;99.90;;;;;;5063235;28;20021;-76
2020/12/08 09:17:15;;;;;;;5.38;3.65;;;8.40;99.90;;;;;;5062666;28;20346;-77
2020/12/08 09:19:41;;;;;;;8.10;3.40;;;8.60;99.90;;;;;;5062656;28;20028;-76
2020/12/08 09:22:06;;;;;;;4.68;3.17;;;8.70;99.90;;;;;;5062853;28;20021;-78
2020/12/08 09:24:33;;;;;;;6.75;3.22;;;8.80;99.90;;;;;;5053596;28;20092;-77
2020/12/08 09:27:00;;;;;;;8.82;3.67;;;8.80;99.90;;;;;;5042700;28;20021;-78
2020/12/08 09:29:26;;;;;;;6.63;3.00;;;8.90;99.90;;;;;;5042955;28;20097;-77
2020/12/08 09:31:58;;;;;;;5.38;2.58;;;8.80;99.90;;;;;;5043010;28;20026;-78
2020/12/08 09:34:25;;;;;;;6.45;3.95;;;8.70;99.90;;;;;;5044301;28;20029;-78
2020/12/08 09:37:01;;;;;;;7.65;2.65;;;8.60;99.90;;;;;;5044180;28;20045;-79
2020/12/08 09:39:30;;;;;;;5.00;3.05;;;8.20;99.90;;;;;;5051057;28;20017;-78
2020/12/08 09:41:56;;;;;;;6.15;3.60;;;7.80;99.90;;;;;;5053312;28;20475;-77
2020/12/08 09:44:25;;;;;;;6.05;3.42;;;7.40;99.90;;;;;;5047031;28;20410;-77
2020/12/08 09:46:52;;;;;;;7.50;3.47;;;7.10;99.90;;;;;;5046913;28;20022;-78
2020/12/08 09:49:19;;;;;;;9.80;3.95;;;6.70;99.90;;;;;;5046992;28;20046;-77
2020/12/08 09:51:45;;;;;;;10.18;3.70;;;6.50;99.90;;;;;;5048200;28;20084;-76
2020/12/08 09:54:11;;;;;;;9.68;4.65;;;6.20;99.90;;;;;;5046854;28;20033;-76
2020/12/08 09:56:36;;;;;;;8.90;4.40;;;6.00;99.90;;;;;;5048025;28;20025;-77
2020/12/08 09:59:02;;;;;;;6.65;3.47;;;5.90;99.90;;;;;;5048356;28;20072;-76
2020/12/08 10:01:29;;;;;;;6.78;3.78;;;5.80;99.90;;;;;;5048150;28;20116;-78
2020/12/08 10:03:55;;;;;;;6.63;4.55;;;5.70;99.90;;;;;;5047872;28;20131;-77
2020/12/08 10:06:22;;;;;;;7.40;4.20;;;5.70;99.90;;;;;;5047811;28;20026;-77
2020/12/08 10:08:54;;;;;;;6.43;3.35;;;5.70;99.90;;;;;;5046322;28;20057;-76
2020/12/08 10:11:25;;;;;;;8.10;4.80;;;5.70;99.90;;;;;;5047895;28;20065;-77
2020/12/08 10:13:52;;;;;;;8.73;4.53;;;5.70;99.90;;;;;;5046782;28;20466;-78
2020/12/08 10:16:25;;;;;;;11.43;3.78;;;5.70;99.90;;;;;;5048266;28;20040;-76
2020/12/08 10:18:55;;;;;;;12.23;5.13;;;5.60;99.90;;;;;;5047899;28;20035;-77
2020/12/08 10:21:25;;;;;;;12.38;5.25;;;5.60;99.90;;;;;;5046478;28;20053;-78
2020/12/08 10:23:52;;;;;;;13.73;5.10;;;5.70;99.90;;;;;;5045849;28;20026;-78
2020/12/08 10:26:27;;;;;;;11.40;4.55;;;5.70;99.90;;;;;;5047780;28;20029;-76
2020/12/08 10:28:56;;;;;;;11.60;5.15;;;5.70;99.90;;;;;;5047564;28;20030;-78
2020/12/08 10:31:22;;;;;;;13.50;5.35;;;5.70;99.90;;;;;;5047686;28;20018;-78
2020/12/08 10:33:47;;;;;;;13.23;5.50;;;5.70;99.90;;;;;;5047186;28;20029;-76
2020/12/08 10:36:13;;;;;;;8.80;5.53;;;5.70;99.90;;;;;;5046006;28;20089;-76
2020/12/08 10:38:39;;;;;;;9.40;3.95;;;5.70;99.90;;;;;;5047182;28;20029;-76
2020/12/08 10:41:05;;;;;;;8.15;4.63;;;5.70;99.90;;;;;;5045921;28;20022;-77
2020/12/08 10:43:31;;;;;;;10.40;5.40;;;5.70;99.90;;;;;;5047227;28;20021;-76
2020/12/08 10:45:58;;;;;;;7.15;4.43;;;5.70;99.90;;;;;;5046938;28;20071;-77
2020/12/08 10:48:24;;;;;;;9.27;4.38;;;5.70;99.90;;;;;;5047221;28;20036;-78
2020/12/08 10:50:51;;;;;;;7.82;4.88;;;5.80;99.90;;;;;;5047398;28;20030;-77
2020/12/08 10:53:17;;;;;;;9.88;5.53;;;5.80;99.90;;;;;;5046241;28;20018;-77
2020/12/08 10:55:42;;;;;;;7.68;4.47;;;5.80;99.90;;;;;;5047227;28;20026;-77
2020/12/08 10:58:08;;;;;;;8.50;4.90;;;5.90;99.90;;;;;;5045366;28;20037;-78
2020/12/08 11:00:34;;;;;;;7.65;4.05;;;5.90;99.90;;;;;;5046909;28;20373;-78
2020/12/08 11:03:00;;;;;;;6.97;4.40;;;5.90;99.90;;;;;;5045462;28;20045;-78
2020/12/08 11:05:26;;;;;;;7.88;4.40;;;5.90;99.90;;;;;;5046930;28;20092;-77
2020/12/08 11:07:52;;;;;;;10.40;5.47;;;6.00;99.90;;;;;;5052301;28;20085;-78
2020/12/08 11:10:18;;;;;;;11.18;4.30;;;6.00;99.90;;;;;;5047210;28;20038;-77
2020/12/08 11:12:44;;;;;;;7.97;4.53;;;6.00;99.90;;;;;;5051970;28;20041;-77
2020/12/08 11:15:11;;;;;;;11.13;5.35;;;6.00;99.90;;;;;;5045696;28;20112;-77
2020/12/08 11:17:37;;;;;;;9.25;4.65;;;6.00;99.90;;;;;;5044585;28;20089;-77
2020/12/08 11:20:04;;;;;;;8.27;3.92;;;6.00;99.90;;;;;;5046042;28;20095;-78
2020/12/08 11:22:31;;;;;;;9.13;4.90;;;6.00;99.90;;;;;;5044620;28;20515;-77
2020/12/08 11:24:58;;;;;;;14.27;5.90;;;6.00;99.90;;;;;;5044352;28;20022;-78
2020/12/08 11:27:24;;;;;;;7.97;4.57;;;6.10;99.90;;;;;;5045366;28;20032;-78
2020/12/08 11:29:52;;;;;;;8.80;5.07;;;6.10;99.90;;;;;;5045749;28;20033;-78
2020/12/08 11:32:18;;;;;;;5.93;3.65;;;6.40;99.90;;;;;;5045945;28;20033;-77
2020/12/08 11:34:45;;;;;;;5.57;3.22;;;6.60;99.90;;;;;;5045284;28;20422;-77
2020/12/08 11:37:12;;;;;;;8.77;4.20;;;6.80;99.90;;;;;;5045219;28;20064;-78
2020/12/08 11:39:38;;;;;;;6.38;4.05;;;7.20;99.90;;;;;;5045051;28;20025;-78
2020/12/08 11:42:05;;;;;;;5.22;2.97;;;8.10;99.90;;;;;;5043912;28;20071;-77
2020/12/08 11:44:31;;;;;;;5.65;3.65;;;8.90;99.90;;;;;;5045429;28;20013;-78
2020/12/08 11:46:57;;;;;;;5.10;2.85;;;;;;;;;;5045684;28;20033;-78
2020/12/08 11:49:23;;;;;;;5.50;3.25;;;;;;;;;;5044848;28;20033;-78
2020/12/08 11:51:50;;;;;;;6.32;3.53;;;;;;;;;;5045546;28;20022;-76
2020/12/08 11:54:16;;;;;;;6.63;4.03;;;;;;;;;;5044371;28;20041;-77
2020/12/08 11:56:42;;;;;;;7.43;3.83;;;;;;;;;;5045532;28;20047;-76
2020/12/08 11:59:08;;;;;;;4.78;3.33;;;;;;;;;;5043501;28;20509;-76
2020/12/08 12:01:34;;;;;;;9.32;4.18;;;;;;;;;;5045295;28;20021;-75
2020/12/08 12:04:00;;;;;;;8.15;4.30;;;;;;;;;;5042913;28;20080;-78
2020/12/08 12:06:26;;;;;;;7.68;4.10;;;;;;;;;;5045363;28;20049;-78
2020/12/08 12:08:52;;;;;;;7.18;3.95;;;;;;;;;;5043496;28;20041;-79
2020/12/08 12:11:18;;;;;;;6.97;3.92;;;;;;;;;;5043971;28;20060;-76
2020/12/08 12:13:44;;;;;;;8.05;4.25;;;;;;;;;;5043384;28;20010;-77
2020/12/08 12:16:10;;;;;;;6.50;3.80;;;;;;;;;;5044653;28;20627;-77
2020/12/08 12:18:36;;;;;;;6.95;4.05;;;;;;;;;;5043550;28;20072;-77
2020/12/08 12:21:02;;;;;;;6.47;3.50;;;;;;;;;;5044879;28;20053;-77
2020/12/08 12:23:29;;;;;;;7.50;4.35;;;;;;;;;;5042801;28;20051;-78
2020/12/08 12:25:55;;;;;;;8.93;4.13;;;;;;;;;;5043502;28;20028;-78
2020/12/08 12:28:21;;;;;;;8.65;3.90;;;;;;;;;;5044600;28;20017;-78
2020/12/08 12:30:47;;;;;;;5.90;3.80;;;;;;;;;;5045067;28;20017;-78
2020/12/08 12:33:13;;;;;;;7.72;3.80;;;;;;;;;;5044588;28;20783;-77
2020/12/08 12:35:39;;;;;;;6.15;3.35;;;;;;;;;;5044448;28;20025;-77
2020/12/08 12:38:05;;;;;;;5.90;3.20;;;;;;;;;;5044668;28;20017;-78
2020/12/08 12:40:31;;;;;;;4.88;2.50;;;;;;;;;;5044285;28;20017;-77
2020/12/08 12:42:57;;;;;;;7.18;4.28;;;;;;;;;;5042941;28;20014;-77
2020/12/08 12:45:23;;;;;;;6.15;3.53;;;;;;;;;;5044174;28;20022;-77
2020/12/08 12:47:49;;;;;;;6.22;3.45;;;;;;;;;;5044845;28;20017;-77
2020/12/08 12:50:15;;;;;;;6.80;4.13;;;;;;;;;;5043410;28;20037;-76
2020/12/08 12:52:41;;;;;;;7.05;4.20;;;;;;;;;;5044469;28;20527;-76
2020/12/08 12:55:07;;;;;;;6.05;3.10;;;;;;;;;;5043266;28;20025;-77
2020/12/08 12:57:33;;;;;;;8.02;3.67;;;;;;;;;;5044426;28;20021;-77
2020/12/08 12:59:59;;;;;;;6.32;3.78;;;;;;;;;;5044529;28;20025;-77